KANW/ANW METAR and TAF weather

Enter ICAO airport designator
Station Type Date Time Source
KANW METAR 2020/06/02 19:15 UTC NOAA

KANW 021915Z AUTO 36017G22KT 10SM CLR 27/19 A2995 RMK AO2 T02700186


Station Type Date Time Source
KANW Decoded METAR 2020/06/02 19:15 UTC NOAA

Ainsworth Municipal, NE, United States (KANW) 42-35N 100-00W
Jun 02, 2020 - 03:15 PM EDT / 2020.06.02 1915 UTC
Wind: from the N (360 degrees) at 20 MPH (17 KT) gusting to 25 MPH (22 KT):0
Visibility: 10 mile(s):0
Sky conditions: clear
Temperature: 80.6 F (27.0 C)
Dew Point: 65.5 F (18.6 C)
Relative Humidity: 60%
Pressure (altimeter): 29.95 in. Hg (1014 hPa)
ob: KANW 021915Z AUTO 36017G22KT 10SM CLR 27/19 A2995 RMK AO2 T02700186
cycle: 19

Station Type Date Time Source
KANW TAF UTC NOAA

Error!

Example: see airport list